sensor_id;sensor_type;location;lat;lon;timestamp;P1;durP1;ratioP1;P2;durP2;ratioP2
38435;SDS011;24220;48.168;14.024;2023-07-30T00:01:22;2.40;;;1.85;;
38435;SDS011;24220;48.168;14.024;2023-07-30T00:03:50;3.15;;;2.45;;
38435;SDS011;24220;48.168;14.024;2023-07-30T00:06:17;2.63;;;2.30;;
38435;SDS011;24220;48.168;14.024;2023-07-30T00:08:45;3.25;;;2.28;;
38435;SDS011;24220;48.168;14.024;2023-07-30T00:11:12;2.20;;;2.00;;
38435;SDS011;24220;48.168;14.024;2023-07-30T00:13:39;3.50;;;2.35;;
38435;SDS011;24220;48.168;14.024;2023-07-30T00:16:07;2.40;;;2.20;;
38435;SDS011;24220;48.168;14.024;2023-07-30T00:18:39;2.20;;;2.00;;
38435;SDS011;24220;48.168;14.024;2023-07-30T00:21:07;2.42;;;2.10;;
38435;SDS011;24220;48.168;14.024;2023-07-30T00:23:34;2.28;;;1.92;;
38435;SDS011;24220;48.168;14.024;2023-07-30T00:26:01;3.50;;;1.77;;
38435;SDS011;24220;48.168;14.024;2023-07-30T00:28:29;2.33;;;2.13;;
38435;SDS011;24220;48.168;14.024;2023-07-30T00:31:00;2.03;;;1.70;;
38435;SDS011;24220;48.168;14.024;2023-07-30T00:33:28;2.00;;;1.80;;
38435;SDS011;24220;48.168;14.024;2023-07-30T00:35:57;1.98;;;1.88;;
38435;SDS011;24220;48.168;14.024;2023-07-30T00:38:24;2.33;;;2.13;;
38435;SDS011;24220;48.168;14.024;2023-07-30T00:40:52;3.30;;;2.45;;
38435;SDS011;24220;48.168;14.024;2023-07-30T00:43:22;3.97;;;3.35;;
38435;SDS011;24220;48.168;14.024;2023-07-30T00:45:49;3.00;;;2.70;;
38435;SDS011;24220;48.168;14.024;2023-07-30T00:48:16;2.58;;;2.38;;
38435;SDS011;24220;48.168;14.024;2023-07-30T00:50:44;2.67;;;2.47;;
38435;SDS011;24220;48.168;14.024;2023-07-30T00:53:11;2.60;;;2.33;;
38435;SDS011;24220;48.168;14.024;2023-07-30T00:55:43;2.10;;;1.90;;
38435;SDS011;24220;48.168;14.024;2023-07-30T00:58:14;1.98;;;1.85;;
38435;SDS011;24220;48.168;14.024;2023-07-30T01:00:42;3.53;;;3.33;;
38435;SDS011;24220;48.168;14.024;2023-07-30T01:03:12;2.00;;;1.80;;
38435;SDS011;24220;48.168;14.024;2023-07-30T01:05:40;2.33;;;2.13;;
38435;SDS011;24220;48.168;14.024;2023-07-30T01:08:10;4.80;;;2.50;;
38435;SDS011;24220;48.168;14.024;2023-07-30T01:10:41;2.08;;;1.95;;
38435;SDS011;24220;48.168;14.024;2023-07-30T01:13:11;4.28;;;2.40;;
38435;SDS011;24220;48.168;14.024;2023-07-30T01:15:40;1.98;;;1.80;;
38435;SDS011;24220;48.168;14.024;2023-07-30T01:18:08;2.72;;;2.25;;
38435;SDS011;24220;48.168;14.024;2023-07-30T01:20:35;2.20;;;2.00;;
38435;SDS011;24220;48.168;14.024;2023-07-30T01:23:05;2.75;;;2.53;;
38435;SDS011;24220;48.168;14.024;2023-07-30T01:25:33;2.40;;;2.20;;
38435;SDS011;24220;48.168;14.024;2023-07-30T01:28:04;2.05;;;1.92;;
38435;SDS011;24220;48.168;14.024;2023-07-30T01:30:40;2.70;;;2.53;;
38435;SDS011;24220;48.168;14.024;2023-07-30T01:33:11;2.40;;;2.20;;
38435;SDS011;24220;48.168;14.024;2023-07-30T01:35:42;2.20;;;2.00;;
38435;SDS011;24220;48.168;14.024;2023-07-30T01:38:10;2.30;;;2.10;;
38435;SDS011;24220;48.168;14.024;2023-07-30T01:40:39;2.33;;;2.03;;
38435;SDS011;24220;48.168;14.024;2023-07-30T01:43:09;2.47;;;2.22;;
38435;SDS011;24220;48.168;14.024;2023-07-30T01:45:39;3.92;;;3.53;;
38435;SDS011;24220;48.168;14.024;2023-07-30T01:48:08;4.18;;;3.67;;
38435;SDS011;24220;48.168;14.024;2023-07-30T01:50:36;2.67;;;2.47;;
38435;SDS011;24220;48.168;14.024;2023-07-30T01:53:03;2.63;;;2.40;;
38435;SDS011;24220;48.168;14.024;2023-07-30T01:55:31;2.22;;;2.03;;
38435;SDS011;24220;48.168;14.024;2023-07-30T01:57:58;1.95;;;1.80;;
38435;SDS011;24220;48.168;14.024;2023-07-30T02:00:25;2.28;;;2.00;;
38435;SDS011;24220;48.168;14.024;2023-07-30T02:02:55;1.95;;;1.70;;
38435;SDS011;24220;48.168;14.024;2023-07-30T02:05:24;2.13;;;1.85;;
38435;SDS011;24220;48.168;14.024;2023-07-30T02:07:54;2.08;;;1.98;;
38435;SDS011;24220;48.168;14.024;2023-07-30T02:10:22;2.03;;;1.90;;
38435;SDS011;24220;48.168;14.024;2023-07-30T02:12:51;2.65;;;2.20;;
38435;SDS011;24220;48.168;14.024;2023-07-30T02:15:18;1.73;;;1.63;;
38435;SDS011;24220;48.168;14.024;2023-07-30T02:17:46;2.45;;;1.80;;
38435;SDS011;24220;48.168;14.024;2023-07-30T02:20:13;2.08;;;1.95;;
38435;SDS011;24220;48.168;14.024;2023-07-30T02:22:40;2.20;;;2.00;;
38435;SDS011;24220;48.168;14.024;2023-07-30T02:25:08;2.20;;;2.00;;
38435;SDS011;24220;48.168;14.024;2023-07-30T02:27:35;2.20;;;2.00;;
38435;SDS011;24220;48.168;14.024;2023-07-30T02:30:03;2.55;;;1.98;;
38435;SDS011;24220;48.168;14.024;2023-07-30T02:32:34;1.80;;;1.70;;
38435;SDS011;24220;48.168;14.024;2023-07-30T02:35:03;1.98;;;1.88;;
38435;SDS011;24220;48.168;14.024;2023-07-30T02:37:33;2.85;;;2.03;;
38435;SDS011;24220;48.168;14.024;2023-07-30T02:40:00;2.10;;;1.92;;
38435;SDS011;24220;48.168;14.024;2023-07-30T02:42:31;2.17;;;1.98;;
38435;SDS011;24220;48.168;14.024;2023-07-30T02:44:59;2.30;;;2.10;;
38435;SDS011;24220;48.168;14.024;2023-07-30T02:47:28;3.15;;;2.20;;
38435;SDS011;24220;48.168;14.024;2023-07-30T02:49:58;2.30;;;2.10;;
38435;SDS011;24220;48.168;14.024;2023-07-30T02:52:25;2.15;;;1.95;;
38435;SDS011;24220;48.168;14.024;2023-07-30T02:54:52;6.03;;;2.10;;
38435;SDS011;24220;48.168;14.024;2023-07-30T02:57:22;1.70;;;1.60;;
38435;SDS011;24220;48.168;14.024;2023-07-30T02:59:49;1.98;;;1.88;;
38435;SDS011;24220;48.168;14.024;2023-07-30T03:02:19;2.35;;;2.15;;
38435;SDS011;24220;48.168;14.024;2023-07-30T03:04:47;1.98;;;1.75;;
38435;SDS011;24220;48.168;14.024;2023-07-30T03:07:19;2.15;;;1.95;;
38435;SDS011;24220;48.168;14.024;2023-07-30T03:09:49;2.40;;;2.20;;
38435;SDS011;24220;48.168;14.024;2023-07-30T03:12:16;2.88;;;2.22;;
38435;SDS011;24220;48.168;14.024;2023-07-30T03:14:43;2.45;;;2.25;;
38435;SDS011;24220;48.168;14.024;2023-07-30T03:17:11;4.00;;;3.70;;
38435;SDS011;24220;48.168;14.024;2023-07-30T03:19:40;3.97;;;2.92;;
38435;SDS011;24220;48.168;14.024;2023-07-30T03:22:10;1.95;;;1.85;;
38435;SDS011;24220;48.168;14.024;2023-07-30T03:24:38;2.22;;;2.00;;
38435;SDS011;24220;48.168;14.024;2023-07-30T03:27:05;2.17;;;1.98;;
38435;SDS011;24220;48.168;14.024;2023-07-30T03:29:33;2.13;;;1.90;;
38435;SDS011;24220;48.168;14.024;2023-07-30T03:32:03;4.85;;;4.55;;
38435;SDS011;24220;48.168;14.024;2023-07-30T03:34:30;2.70;;;2.28;;
38435;SDS011;24220;48.168;14.024;2023-07-30T03:36:58;2.28;;;2.08;;
38435;SDS011;24220;48.168;14.024;2023-07-30T03:39:27;4.53;;;2.20;;
38435;SDS011;24220;48.168;14.024;2023-07-30T03:41:54;2.53;;;2.33;;
38435;SDS011;24220;48.168;14.024;2023-07-30T03:44:22;3.90;;;2.45;;
38435;SDS011;24220;48.168;14.024;2023-07-30T03:46:53;2.17;;;2.08;;
38435;SDS011;24220;48.168;14.024;2023-07-30T03:49:21;3.15;;;2.80;;
38435;SDS011;24220;48.168;14.024;2023-07-30T03:51:48;2.70;;;2.40;;
38435;SDS011;24220;48.168;14.024;2023-07-30T03:54:18;2.60;;;2.40;;
38435;SDS011;24220;48.168;14.024;2023-07-30T03:56:45;3.42;;;2.20;;
38435;SDS011;24220;48.168;14.024;2023-07-30T03:59:15;3.85;;;2.40;;
38435;SDS011;24220;48.168;14.024;2023-07-30T04:01:44;3.83;;;3.55;;
38435;SDS011;24220;48.168;14.024;2023-07-30T04:04:14;2.08;;;1.90;;
38435;SDS011;24220;48.168;14.024;2023-07-30T04:06:42;1.90;;;1.80;;
38435;SDS011;24220;48.168;14.024;2023-07-30T04:09:11;2.17;;;2.00;;
38435;SDS011;24220;48.168;14.024;2023-07-30T04:11:39;2.22;;;2.03;;
38435;SDS011;24220;48.168;14.024;2023-07-30T04:14:06;2.40;;;2.20;;
38435;SDS011;24220;48.168;14.024;2023-07-30T04:16:35;2.25;;;2.05;;
38435;SDS011;24220;48.168;14.024;2023-07-30T04:19:05;2.33;;;2.13;;
38435;SDS011;24220;48.168;14.024;2023-07-30T04:21:33;1.95;;;1.85;;
38435;SDS011;24220;48.168;14.024;2023-07-30T04:24:00;2.50;;;2.30;;
38435;SDS011;24220;48.168;14.024;2023-07-30T04:26:27;2.20;;;2.00;;
38435;SDS011;24220;48.168;14.024;2023-07-30T04:28:55;2.10;;;1.90;;
38435;SDS011;24220;48.168;14.024;2023-07-30T04:31:24;2.75;;;2.55;;
38435;SDS011;24220;48.168;14.024;2023-07-30T04:33:54;3.00;;;2.08;;
38435;SDS011;24220;48.168;14.024;2023-07-30T04:36:26;1.90;;;1.80;;
38435;SDS011;24220;48.168;14.024;2023-07-30T04:38:56;2.25;;;1.90;;
38435;SDS011;24220;48.168;14.024;2023-07-30T04:41:23;2.20;;;2.00;;
38435;SDS011;24220;48.168;14.024;2023-07-30T04:43:51;1.90;;;1.80;;
38435;SDS011;24220;48.168;14.024;2023-07-30T04:46:18;3.15;;;2.60;;
38435;SDS011;24220;48.168;14.024;2023-07-30T04:48:45;3.25;;;2.10;;
38435;SDS011;24220;48.168;14.024;2023-07-30T04:51:15;2.30;;;1.98;;
38435;SDS011;24220;48.168;14.024;2023-07-30T04:53:42;2.50;;;2.13;;
38435;SDS011;24220;48.168;14.024;2023-07-30T04:56:14;2.13;;;1.92;;
38435;SDS011;24220;48.168;14.024;2023-07-30T04:58:43;2.60;;;2.15;;
38435;SDS011;24220;48.168;14.024;2023-07-30T05:01:13;2.42;;;2.22;;
38435;SDS011;24220;48.168;14.024;2023-07-30T05:03:40;3.45;;;2.30;;
38435;SDS011;24220;48.168;14.024;2023-07-30T05:06:13;2.40;;;2.00;;
38435;SDS011;24220;48.168;14.024;2023-07-30T05:08:42;2.10;;;1.90;;
38435;SDS011;24220;48.168;14.024;2023-07-30T05:11:09;2.15;;;1.95;;
38435;SDS011;24220;48.168;14.024;2023-07-30T05:13:39;2.30;;;2.10;;
38435;SDS011;24220;48.168;14.024;2023-07-30T05:16:06;3.35;;;2.05;;
38435;SDS011;24220;48.168;14.024;2023-07-30T05:18:34;2.42;;;2.00;;
38435;SDS011;24220;48.168;14.024;2023-07-30T05:21:03;2.40;;;1.90;;
38435;SDS011;24220;48.168;14.024;2023-07-30T05:23:30;1.90;;;1.73;;
38435;SDS011;24220;48.168;14.024;2023-07-30T05:25:58;2.10;;;1.90;;
38435;SDS011;24220;48.168;14.024;2023-07-30T05:28:25;2.25;;;2.00;;
38435;SDS011;24220;48.168;14.024;2023-07-30T05:30:53;2.00;;;1.90;;
38435;SDS011;24220;48.168;14.024;2023-07-30T05:33:23;2.30;;;2.03;;
38435;SDS011;24220;48.168;14.024;2023-07-30T05:35:50;2.17;;;1.90;;
38435;SDS011;24220;48.168;14.024;2023-07-30T05:38:17;1.90;;;1.70;;
38435;SDS011;24220;48.168;14.024;2023-07-30T05:40:47;2.05;;;1.85;;
38435;SDS011;24220;48.168;14.024;2023-07-30T05:43:17;2.30;;;1.80;;
38435;SDS011;24220;48.168;14.024;2023-07-30T05:45:47;2.65;;;1.77;;
38435;SDS011;24220;48.168;14.024;2023-07-30T05:48:14;1.70;;;1.60;;
38435;SDS011;24220;48.168;14.024;2023-07-30T05:50:41;1.88;;;1.75;;
38435;SDS011;24220;48.168;14.024;2023-07-30T05:53:09;2.80;;;1.83;;
38435;SDS011;24220;48.168;14.024;2023-07-30T05:55:36;1.50;;;1.40;;
38435;SDS011;24220;48.168;14.024;2023-07-30T05:58:03;1.85;;;1.75;;
38435;SDS011;24220;48.168;14.024;2023-07-30T06:00:35;2.15;;;2.03;;
38435;SDS011;24220;48.168;14.024;2023-07-30T06:03:03;4.25;;;4.05;;
38435;SDS011;24220;48.168;14.024;2023-07-30T06:05:30;2.00;;;1.90;;
38435;SDS011;24220;48.168;14.024;2023-07-30T06:07:57;1.98;;;1.70;;
38435;SDS011;24220;48.168;14.024;2023-07-30T06:10:26;1.80;;;1.70;;
38435;SDS011;24220;48.168;14.024;2023-07-30T06:12:53;1.80;;;1.63;;
38435;SDS011;24220;48.168;14.024;2023-07-30T06:15:23;1.83;;;1.70;;
38435;SDS011;24220;48.168;14.024;2023-07-30T06:17:50;2.70;;;1.83;;
38435;SDS011;24220;48.168;14.024;2023-07-30T06:20:17;1.90;;;1.75;;
38435;SDS011;24220;48.168;14.024;2023-07-30T06:22:45;2.13;;;1.90;;
38435;SDS011;24220;48.168;14.024;2023-07-30T06:25:13;3.75;;;1.80;;
38435;SDS011;24220;48.168;14.024;2023-07-30T06:27:40;1.92;;;1.83;;
38435;SDS011;24220;48.168;14.024;2023-07-30T06:30:07;2.33;;;1.65;;
38435;SDS011;24220;48.168;14.024;2023-07-30T06:32:38;2.27;;;2.07;;
38435;SDS011;24220;48.168;14.024;2023-07-30T06:35:05;2.40;;;2.20;;
38435;SDS011;24220;48.168;14.024;2023-07-30T06:37:33;2.10;;;1.83;;
38435;SDS011;24220;48.168;14.024;2023-07-30T06:40:00;2.60;;;1.80;;
38435;SDS011;24220;48.168;14.024;2023-07-30T06:42:32;2.00;;;1.80;;
38435;SDS011;24220;48.168;14.024;2023-07-30T06:45:02;1.90;;;1.80;;
38435;SDS011;24220;48.168;14.024;2023-07-30T06:47:30;1.67;;;1.58;;
38435;SDS011;24220;48.168;14.024;2023-07-30T06:49:59;2.28;;;1.60;;
38435;SDS011;24220;48.168;14.024;2023-07-30T06:52:27;2.08;;;1.65;;
38435;SDS011;24220;48.168;14.024;2023-07-30T06:54:57;1.70;;;1.60;;
38435;SDS011;24220;48.168;14.024;2023-07-30T06:57:27;1.67;;;1.58;;
38435;SDS011;24220;48.168;14.024;2023-07-30T06:59:54;1.65;;;1.55;;
38435;SDS011;24220;48.168;14.024;2023-07-30T07:02:21;1.83;;;1.73;;
38435;SDS011;24220;48.168;14.024;2023-07-30T07:04:49;2.17;;;1.98;;
38435;SDS011;24220;48.168;14.024;2023-07-30T07:07:21;2.08;;;1.67;;
38435;SDS011;24220;48.168;14.024;2023-07-30T07:09:48;1.90;;;1.80;;
38435;SDS011;24220;48.168;14.024;2023-07-30T07:12:15;1.50;;;1.38;;
38435;SDS011;24220;48.168;14.024;2023-07-30T07:14:43;1.50;;;1.40;;
38435;SDS011;24220;48.168;14.024;2023-07-30T07:17:10;1.48;;;1.38;;
38435;SDS011;24220;48.168;14.024;2023-07-30T07:19:37;1.60;;;1.50;;
38435;SDS011;24220;48.168;14.024;2023-07-30T07:22:05;1.85;;;1.70;;
38435;SDS011;24220;48.168;14.024;2023-07-30T07:24:32;1.85;;;1.70;;
38435;SDS011;24220;48.168;14.024;2023-07-30T07:27:00;1.55;;;1.45;;
38435;SDS011;24220;48.168;14.024;2023-07-30T07:29:27;1.50;;;1.40;;
38435;SDS011;24220;48.168;14.024;2023-07-30T07:31:57;1.55;;;1.45;;
38435;SDS011;24220;48.168;14.024;2023-07-30T07:34:26;1.60;;;1.50;;
38435;SDS011;24220;48.168;14.024;2023-07-30T07:36:54;2.55;;;1.50;;
38435;SDS011;24220;48.168;14.024;2023-07-30T07:39:21;1.52;;;1.42;;
38435;SDS011;24220;48.168;14.024;2023-07-30T07:41:48;3.65;;;1.90;;
38435;SDS011;24220;48.168;14.024;2023-07-30T07:44:16;2.47;;;1.50;;
38435;SDS011;24220;48.168;14.024;2023-07-30T07:46:43;1.50;;;1.40;;
38435;SDS011;24220;48.168;14.024;2023-07-30T07:49:11;1.85;;;1.30;;
38435;SDS011;24220;48.168;14.024;2023-07-30T07:51:38;1.40;;;1.30;;
38435;SDS011;24220;48.168;14.024;2023-07-30T07:54:06;1.45;;;1.30;;
38435;SDS011;24220;48.168;14.024;2023-07-30T07:56:33;1.55;;;1.40;;
38435;SDS011;24220;48.168;14.024;2023-07-30T07:59:01;1.42;;;1.33;;
38435;SDS011;24220;48.168;14.024;2023-07-30T08:01:28;2.13;;;2.03;;
38435;SDS011;24220;48.168;14.024;2023-07-30T08:03:55;1.13;;;1.10;;
38435;SDS011;24220;48.168;14.024;2023-07-30T08:06:23;1.60;;;1.50;;
38435;SDS011;24220;48.168;14.024;2023-07-30T08:08:50;1.30;;;1.20;;
38435;SDS011;24220;48.168;14.024;2023-07-30T08:11:17;1.58;;;1.48;;
38435;SDS011;24220;48.168;14.024;2023-07-30T08:13:47;1.23;;;1.10;;
38435;SDS011;24220;48.168;14.024;2023-07-30T08:16:17;1.73;;;1.00;;
38435;SDS011;24220;48.168;14.024;2023-07-30T08:18:44;1.17;;;1.10;;
38435;SDS011;24220;48.168;14.024;2023-07-30T08:21:12;1.20;;;1.10;;
38435;SDS011;24220;48.168;14.024;2023-07-30T08:23:39;1.30;;;1.20;;
38435;SDS011;24220;48.168;14.024;2023-07-30T08:26:06;1.20;;;1.10;;
38435;SDS011;24220;48.168;14.024;2023-07-30T08:28:34;1.00;;;1.00;;
38435;SDS011;24220;48.168;14.024;2023-07-30T08:31:01;1.20;;;1.10;;
38435;SDS011;24220;48.168;14.024;2023-07-30T08:33:29;1.20;;;1.10;;
38435;SDS011;24220;48.168;14.024;2023-07-30T08:35:56;1.20;;;1.10;;
38435;SDS011;24220;48.168;14.024;2023-07-30T08:38:24;1.13;;;1.02;;
38435;SDS011;24220;48.168;14.024;2023-07-30T08:40:54;1.38;;;1.27;;
38435;SDS011;24220;48.168;14.024;2023-07-30T08:43:21;1.30;;;1.20;;
38435;SDS011;24220;48.168;14.024;2023-07-30T08:45:49;1.30;;;1.10;;
38435;SDS011;24220;48.168;14.024;2023-07-30T08:48:19;1.30;;;1.20;;
38435;SDS011;24220;48.168;14.024;2023-07-30T08:50:46;1.30;;;1.20;;
38435;SDS011;24220;48.168;14.024;2023-07-30T08:53:16;1.20;;;1.10;;
38435;SDS011;24220;48.168;14.024;2023-07-30T08:55:44;1.27;;;1.17;;
38435;SDS011;24220;48.168;14.024;2023-07-30T08:58:12;1.13;;;1.10;;
38435;SDS011;24220;48.168;14.024;2023-07-30T09:03:14;1.10;;;1.00;;
38435;SDS011;24220;48.168;14.024;2023-07-30T09:05:43;1.25;;;1.15;;
38435;SDS011;24220;48.168;14.024;2023-07-30T09:08:11;1.10;;;1.05;;
38435;SDS011;24220;48.168;14.024;2023-07-30T09:10:39;1.20;;;1.10;;
38435;SDS011;24220;48.168;14.024;2023-07-30T09:13:07;1.15;;;1.05;;
38435;SDS011;24220;48.168;14.024;2023-07-30T09:15:39;1.20;;;1.10;;
38435;SDS011;24220;48.168;14.024;2023-07-30T09:18:07;1.33;;;1.15;;
38435;SDS011;24220;48.168;14.024;2023-07-30T09:20:39;1.40;;;1.30;;
38435;SDS011;24220;48.168;14.024;2023-07-30T09:23:08;1.63;;;1.15;;
38435;SDS011;24220;48.168;14.024;2023-07-30T09:25:36;1.52;;;1.33;;
38435;SDS011;24220;48.168;14.024;2023-07-30T09:28:06;1.33;;;1.23;;
38435;SDS011;24220;48.168;14.024;2023-07-30T09:30:36;2.10;;;1.42;;
38435;SDS011;24220;48.168;14.024;2023-07-30T09:33:03;1.50;;;1.40;;
38435;SDS011;24220;48.168;14.024;2023-07-30T09:35:32;1.50;;;1.40;;
38435;SDS011;24220;48.168;14.024;2023-07-30T09:38:03;1.55;;;1.45;;
38435;SDS011;24220;48.168;14.024;2023-07-30T09:40:39;1.90;;;1.42;;
38435;SDS011;24220;48.168;14.024;2023-07-30T09:43:10;3.15;;;1.55;;
38435;SDS011;24220;48.168;14.024;2023-07-30T09:45:40;1.77;;;1.60;;
38435;SDS011;24220;48.168;14.024;2023-07-30T09:48:07;1.88;;;1.63;;
38435;SDS011;24220;48.168;14.024;2023-07-30T09:50:36;2.08;;;1.88;;
38435;SDS011;24220;48.168;14.024;2023-07-30T09:53:06;1.58;;;1.48;;
38435;SDS011;24220;48.168;14.024;2023-07-30T09:55:38;1.55;;;1.42;;
38435;SDS011;24220;48.168;14.024;2023-07-30T09:58:05;9.73;;;2.85;;
38435;SDS011;24220;48.168;14.024;2023-07-30T10:00:39;3.10;;;2.75;;
38435;SDS011;24220;48.168;14.024;2023-07-30T10:03:09;2.92;;;2.70;;
38435;SDS011;24220;48.168;14.024;2023-07-30T10:05:40;2.80;;;1.90;;
38435;SDS011;24220;48.168;14.024;2023-07-30T10:08:11;2.28;;;1.60;;
38435;SDS011;24220;48.168;14.024;2023-07-30T10:10:45;2.60;;;1.85;;
38435;SDS011;24220;48.168;14.024;2023-07-30T10:13:14;1.70;;;1.60;;
38435;SDS011;24220;48.168;14.024;2023-07-30T10:15:43;1.73;;;1.60;;
38435;SDS011;24220;48.168;14.024;2023-07-30T10:18:12;2.42;;;1.70;;
38435;SDS011;24220;48.168;14.024;2023-07-30T10:20:41;1.90;;;1.70;;
38435;SDS011;24220;48.168;14.024;2023-07-30T10:23:19;1.80;;;1.70;;
38435;SDS011;24220;48.168;14.024;2023-07-30T10:25:47;1.70;;;1.60;;
38435;SDS011;24220;48.168;14.024;2023-07-30T10:28:32;1.98;;;1.77;;
38435;SDS011;24220;48.168;14.024;2023-07-30T10:31:11;1.98;;;1.80;;
38435;SDS011;24220;48.168;14.024;2023-07-30T10:36:14;3.35;;;2.17;;
38435;SDS011;24220;48.168;14.024;2023-07-30T10:39:15;2.42;;;1.70;;
38435;SDS011;24220;48.168;14.024;2023-07-30T10:41:50;2.72;;;1.70;;
38435;SDS011;24220;48.168;14.024;2023-07-30T10:44:24;2.00;;;1.50;;
38435;SDS011;24220;48.168;14.024;2023-07-30T10:46:57;2.08;;;1.50;;
38435;SDS011;24220;48.168;14.024;2023-07-30T10:49:27;2.40;;;1.90;;
38435;SDS011;24220;48.168;14.024;2023-07-30T10:51:55;1.80;;;1.45;;
38435;SDS011;24220;48.168;14.024;2023-07-30T10:54:24;2.33;;;1.67;;
38435;SDS011;24220;48.168;14.024;2023-07-30T10:56:52;1.92;;;1.77;;
38435;SDS011;24220;48.168;14.024;2023-07-30T10:59:20;1.67;;;1.58;;
38435;SDS011;24220;48.168;14.024;2023-07-30T11:01:48;2.08;;;1.60;;
38435;SDS011;24220;48.168;14.024;2023-07-30T11:04:17;1.50;;;1.40;;
38435;SDS011;24220;48.168;14.024;2023-07-30T11:06:46;2.20;;;1.53;;
38435;SDS011;24220;48.168;14.024;2023-07-30T11:09:25;2.33;;;1.60;;
38435;SDS011;24220;48.168;14.024;2023-07-30T11:11:55;1.70;;;1.60;;
38435;SDS011;24220;48.168;14.024;2023-07-30T11:14:24;2.10;;;1.90;;
38435;SDS011;24220;48.168;14.024;2023-07-30T11:19:27;1.85;;;1.75;;
38435;SDS011;24220;48.168;14.024;2023-07-30T11:21:55;1.88;;;1.75;;
38435;SDS011;24220;48.168;14.024;2023-07-30T11:24:36;2.05;;;1.85;;
38435;SDS011;24220;48.168;14.024;2023-07-30T11:27:04;1.50;;;1.40;;
38435;SDS011;24220;48.168;14.024;2023-07-30T11:29:32;2.20;;;1.80;;
38435;SDS011;24220;48.168;14.024;2023-07-30T11:31:59;4.50;;;1.85;;
38435;SDS011;24220;48.168;14.024;2023-07-30T11:34:30;1.83;;;1.63;;
38435;SDS011;24220;48.168;14.024;2023-07-30T11:37:05;2.13;;;1.73;;
38435;SDS011;24220;48.168;14.024;2023-07-30T11:39:35;2.03;;;1.80;;
38435;SDS011;24220;48.168;14.024;2023-07-30T11:42:03;2.33;;;1.65;;
38435;SDS011;24220;48.168;14.024;2023-07-30T11:44:31;2.53;;;2.00;;
38435;SDS011;24220;48.168;14.024;2023-07-30T11:47:01;1.75;;;1.60;;
38435;SDS011;24220;48.168;14.024;2023-07-30T11:49:30;2.70;;;1.73;;
38435;SDS011;24220;48.168;14.024;2023-07-30T11:52:10;2.42;;;1.45;;
38435;SDS011;24220;48.168;14.024;2023-07-30T11:54:38;2.97;;;1.60;;
38435;SDS011;24220;48.168;14.024;2023-07-30T11:57:05;1.90;;;1.70;;
38435;SDS011;24220;48.168;14.024;2023-07-30T11:59:37;1.70;;;1.60;;
38435;SDS011;24220;48.168;14.024;2023-07-30T12:02:08;1.85;;;1.75;;
38435;SDS011;24220;48.168;14.024;2023-07-30T12:04:44;2.67;;;2.00;;
38435;SDS011;24220;48.168;14.024;2023-07-30T12:07:22;1.88;;;1.60;;
38435;SDS011;24220;48.168;14.024;2023-07-30T12:09:51;2.05;;;1.73;;
38435;SDS011;24220;48.168;14.024;2023-07-30T12:12:24;1.83;;;1.60;;
38435;SDS011;24220;48.168;14.024;2023-07-30T12:14:54;2.83;;;1.80;;
38435;SDS011;24220;48.168;14.024;2023-07-30T12:17:22;1.60;;;1.50;;
38435;SDS011;24220;48.168;14.024;2023-07-30T12:19:49;2.17;;;1.65;;
38435;SDS011;24220;48.168;14.024;2023-07-30T12:22:17;1.73;;;1.63;;
38435;SDS011;24220;48.168;14.024;2023-07-30T12:24:46;2.13;;;1.77;;
38435;SDS011;24220;48.168;14.024;2023-07-30T12:27:16;1.88;;;1.58;;
38435;SDS011;24220;48.168;14.024;2023-07-30T12:29:44;2.08;;;1.65;;
38435;SDS011;24220;48.168;14.024;2023-07-30T12:32:11;2.40;;;1.80;;
38435;SDS011;24220;48.168;14.024;2023-07-30T12:34:41;1.60;;;1.50;;
38435;SDS011;24220;48.168;14.024;2023-07-30T12:37:11;1.83;;;1.52;;
38435;SDS011;24220;48.168;14.024;2023-07-30T12:39:38;3.05;;;2.03;;
38435;SDS011;24220;48.168;14.024;2023-07-30T12:42:05;2.17;;;1.90;;
38435;SDS011;24220;48.168;14.024;2023-07-30T12:44:33;2.10;;;1.95;;
38435;SDS011;24220;48.168;14.024;2023-07-30T12:47:00;2.53;;;2.00;;
38435;SDS011;24220;48.168;14.024;2023-07-30T12:49:27;2.38;;;2.08;;
38435;SDS011;24220;48.168;14.024;2023-07-30T12:51:55;2.10;;;1.90;;
38435;SDS011;24220;48.168;14.024;2023-07-30T12:54:22;2.17;;;1.98;;
38435;SDS011;24220;48.168;14.024;2023-07-30T12:56:49;2.95;;;1.90;;
38435;SDS011;24220;48.168;14.024;2023-07-30T12:59:17;2.25;;;1.83;;
38435;SDS011;24220;48.168;14.024;2023-07-30T13:01:44;2.63;;;2.40;;
38435;SDS011;24220;48.168;14.024;2023-07-30T13:04:14;2.22;;;1.90;;
38435;SDS011;24220;48.168;14.024;2023-07-30T13:06:44;2.17;;;1.73;;
38435;SDS011;24220;48.168;14.024;2023-07-30T13:09:11;1.67;;;1.58;;
38435;SDS011;24220;48.168;14.024;2023-07-30T13:11:38;2.75;;;1.70;;
38435;SDS011;24220;48.168;14.024;2023-07-30T13:14:06;1.83;;;1.45;;
38435;SDS011;24220;48.168;14.024;2023-07-30T13:16:36;1.60;;;1.50;;
38435;SDS011;24220;48.168;14.024;2023-07-30T13:19:08;2.03;;;1.60;;
38435;SDS011;24220;48.168;14.024;2023-07-30T13:21:35;1.98;;;1.50;;
38435;SDS011;24220;48.168;14.024;2023-07-30T13:24:04;3.40;;;1.75;;
38435;SDS011;24220;48.168;14.024;2023-07-30T13:26:32;2.00;;;1.77;;
38435;SDS011;24220;48.168;14.024;2023-07-30T13:29:01;2.10;;;1.80;;
38435;SDS011;24220;48.168;14.024;2023-07-30T13:31:29;2.70;;;2.03;;
38435;SDS011;24220;48.168;14.024;2023-07-30T13:33:57;2.42;;;2.00;;
38435;SDS011;24220;48.168;14.024;2023-07-30T13:36:24;2.35;;;1.77;;
38435;SDS011;24220;48.168;14.024;2023-07-30T13:38:51;3.50;;;2.15;;
38435;SDS011;24220;48.168;14.024;2023-07-30T13:41:19;2.78;;;1.70;;
38435;SDS011;24220;48.168;14.024;2023-07-30T13:43:47;6.38;;;1.88;;
38435;SDS011;24220;48.168;14.024;2023-07-30T13:46:16;1.80;;;1.63;;
38435;SDS011;24220;48.168;14.024;2023-07-30T13:48:44;1.70;;;1.60;;
38435;SDS011;24220;48.168;14.024;2023-07-30T13:51:11;2.55;;;1.42;;
38435;SDS011;24220;48.168;14.024;2023-07-30T13:53:41;2.22;;;1.52;;
38435;SDS011;24220;48.168;14.024;2023-07-30T13:56:09;1.70;;;1.60;;
38435;SDS011;24220;48.168;14.024;2023-07-30T13:58:36;1.70;;;1.50;;
38435;SDS011;24220;48.168;14.024;2023-07-30T14:01:08;1.90;;;1.30;;
38435;SDS011;24220;48.168;14.024;2023-07-30T14:03:40;3.20;;;1.52;;
38435;SDS011;24220;48.168;14.024;2023-07-30T14:06:08;1.60;;;1.50;;
38435;SDS011;24220;48.168;14.024;2023-07-30T14:08:35;1.70;;;1.38;;
38435;SDS011;24220;48.168;14.024;2023-07-30T14:11:03;1.90;;;1.50;;
38435;SDS011;24220;48.168;14.024;2023-07-30T14:13:35;1.50;;;1.40;;
38435;SDS011;24220;48.168;14.024;2023-07-30T14:16:05;4.40;;;1.60;;
38435;SDS011;24220;48.168;14.024;2023-07-30T14:18:32;1.70;;;1.50;;
38435;SDS011;24220;48.168;14.024;2023-07-30T14:21:02;1.65;;;1.50;;
38435;SDS011;24220;48.168;14.024;2023-07-30T14:23:29;1.60;;;1.50;;
38435;SDS011;24220;48.168;14.024;2023-07-30T14:25:59;1.63;;;1.35;;
38435;SDS011;24220;48.168;14.024;2023-07-30T14:28:26;1.52;;;1.42;;
38435;SDS011;24220;48.168;14.024;2023-07-30T14:30:54;1.67;;;1.55;;
38435;SDS011;24220;48.168;14.024;2023-07-30T14:33:22;1.50;;;1.40;;
38435;SDS011;24220;48.168;14.024;2023-07-30T14:35:49;1.80;;;1.67;;
38435;SDS011;24220;48.168;14.024;2023-07-30T14:38:17;2.88;;;2.22;;
38435;SDS011;24220;48.168;14.024;2023-07-30T14:40:44;1.52;;;1.42;;
38435;SDS011;24220;48.168;14.024;2023-07-30T14:43:11;1.80;;;1.70;;
38435;SDS011;24220;48.168;14.024;2023-07-30T14:45:41;1.30;;;1.20;;
38435;SDS011;24220;48.168;14.024;2023-07-30T14:48:08;2.88;;;1.60;;
38435;SDS011;24220;48.168;14.024;2023-07-30T14:50:35;1.70;;;1.40;;